Overview Statistics Trail Chart Weather Telemetry Raw packets
 

This is the latest recevied weather packets stored in our database for station/object KF0RZX-13. If no packets are shown the sender has not sent any weather packets the latest 10 day(s).

<< 4 5 6 7 8 9 10 >>
Time Temp. Humidity Pressure Rain* Wind** Luminosity Snow
1788105632 27.22° C 32% 1018.3 hPa 0 mm - - -
1788103827 25° C 39% 1018.3 hPa 0 mm - - -
1788102021 22.78° C 44% 1018.6 hPa 0 mm - - -
1788100216 22.22° C 50% 1018.3 hPa 0 mm - - -
1788096581 17.22° C 72% 1017.9 hPa 0 mm - - -
1788094776 17.78° C 64% 1017.9 hPa 0 mm - - -
1788092975 17.78° C 64% 1017.6 hPa 0 mm - - -
1788091151 20° C 53% 1017.3 hPa 0 mm - - -
1788089346 18.89° C 60% 1016.6 hPa 0 mm - - -
1788087541 17.78° C 64% 1016.9 hPa - - - -
1788085711 18.89° C 56% 1016.9 hPa 0 mm - - -
1788083906 17.78° C 60% 1016.9 hPa 0 mm - - -
1788082101 17.78° C 60% 1016.6 hPa 0 mm - - -
1788080296 17.22° C 68% 1016.6 hPa 0 mm - - -
1788078491 16.11° C 72% 1016.6 hPa 0 mm - - -
1788076688 16.11° C 72% 1016.9 hPa 0 mm - - -
1788074881 17.22° C 68% 1016.9 hPa 0 mm - - -
1788073076 17.22° C 68% 1017.3 hPa 0 mm - - -
1788071271 17.22° C 68% 1016.9 hPa 0 mm - - -
1788069466 17.78° C 64% 1017.3 hPa 0 mm - - -
1788067661 17.78° C 64% 1017.6 hPa 0 mm - - -
1788065856 17.78° C 64% 1018.6 hPa 0 mm - - -
1788064051 17.78° C 68% 1018.6 hPa 0 mm - - -
1788062246 17.78° C 68% 1019.3 hPa 0 mm - - -
1788060441 18.89° C 64% 1019.6 hPa 0 mm - - -

* Rain latest hour (hover to see other rain measurements)
** Current wind speed in m/s (hover to see current wind gust speed)